Time;durP1;ratioP1;P1;durP2;ratioP2;P2;SDS_P1;SDS_P2;PMS_P1;PMS_P2;Temp;Humidity;BMP_temperature;BMP_pressure;BME280_temperature;BME280_humidity;BME280_pressure;Samples;Min_cycle;Max_cycle;Signal;HPM_P1;HPM_P2
2021/08/14 00:00:59;;;;;;;;;8.33;8.33;;;;;24.92;51.04;98890.69;4875918;28;103092;-80
2021/08/14 00:03:26;;;;;;;;;9.67;8.67;;;;;24.89;51.02;98886.56;4884612;28;102433;-80
2021/08/14 00:05:53;;;;;;;;;11.00;11.00;;;;;24.90;50.97;98887.41;4883968;28;102346;-80
2021/08/14 00:08:20;;;;;;;;;10.00;9.00;;;;;24.91;51.10;98889.03;4882739;28;102586;-80
2021/08/14 00:10:48;;;;;;;;;9.33;8.33;;;;;24.88;51.14;98879.38;4877131;28;104304;-80
2021/08/14 00:13:15;;;;;;;;;7.00;7.00;;;;;24.88;51.27;98884.91;4895530;28;103978;-80
2021/08/14 00:15:42;;;;;;;;;9.00;7.67;;;;;24.87;51.11;98878.56;4884583;28;102565;-80
2021/08/14 00:18:10;;;;;;;;;5.33;5.33;;;;;24.88;51.38;98879.38;4883898;28;102681;-80
2021/08/14 00:20:37;;;;;;;;;8.33;7.67;;;;;24.86;51.20;98874.13;4913633;28;104340;-80
2021/08/14 00:23:04;;;;;;;;;7.33;7.33;;;;;24.86;51.23;98870.53;4906304;28;102500;-80
2021/08/14 00:25:32;;;;;;;;;8.33;8.00;;;;;24.86;51.28;98876.06;4911816;28;102152;-80
2021/08/14 00:27:59;;;;;;;;;9.00;8.67;;;;;24.85;51.40;98869.69;4909233;28;103365;-80
2021/08/14 00:30:26;;;;;;;;;10.67;10.00;;;;;24.84;51.28;98865.28;4895736;28;104487;-80
2021/08/14 00:32:53;;;;;;;;;8.67;8.67;;;;;24.84;51.23;98862.50;4904455;28;102689;-80
2021/08/14 00:35:20;;;;;;;;;7.67;7.00;;;;;24.83;51.25;98852.56;4906699;28;102590;-80
2021/08/14 00:37:47;;;;;;;;;8.67;7.67;;;;;24.83;51.18;98855.31;4922131;28;105090;-80
2021/08/14 00:40:14;;;;;;;;;8.00;8.00;;;;;24.82;51.18;98853.66;4908963;28;104090;-80
2021/08/14 00:42:42;;;;;;;;;9.67;8.67;;;;;24.82;51.09;98856.44;4907882;28;102410;-80
2021/08/14 00:45:09;;;;;;;;;8.67;8.00;;;;;24.79;50.95;98845.94;4904051;28;102524;-80
2021/08/14 00:47:40;;;;;;;;;10.33;9.33;;;;;24.81;51.32;98845.66;4915012;28;102638;-80
2021/08/14 00:50:08;;;;;;;;;9.33;9.00;;;;;24.80;51.40;98850.38;4895404;28;110347;-80
2021/08/14 00:52:35;;;;;;;;;8.00;8.00;;;;;24.80;51.41;98844.84;4909459;28;103059;-80
2021/08/14 00:55:03;;;;;;;;;7.33;7.33;;;;;24.80;51.19;98833.78;4893240;28;104757;-80
2021/08/14 00:57:30;;;;;;;;;12.00;8.33;;;;;24.69;51.29;98826.66;4898592;28;102763;-80
2021/08/14 00:59:58;;;;;;;;;9.67;9.00;;;;;24.78;51.36;98836.00;4896042;28;104201;-80
2021/08/14 01:02:25;;;;;;;;;10.67;9.67;;;;;24.78;51.17;98847.06;4893478;28;104119;-80
2021/08/14 01:04:52;;;;;;;;;8.33;8.00;;;;;24.79;51.30;98842.34;4897658;28;103199;-80
2021/08/14 01:07:19;;;;;;;;;8.67;8.67;;;;;24.78;51.25;98846.22;4888928;28;103635;-80
2021/08/14 01:09:47;;;;;;;;;7.00;7.00;;;;;24.78;51.20;98851.75;4897982;28;105249;-80
2021/08/14 01:12:16;;;;;;;;;8.33;8.00;;;;;24.77;51.47;98859.22;4902379;28;103755;-80
2021/08/14 01:14:45;;;;;;;;;6.67;6.67;;;;;24.77;51.29;98858.38;4915196;28;102154;-80
2021/08/14 01:17:13;;;;;;;;;8.67;8.67;;;;;24.76;51.47;98857.59;4898687;28;106483;-80
2021/08/14 01:19:42;;;;;;;;;11.33;11.00;;;;;24.76;51.57;98854.81;4880495;28;104047;-80
2021/08/14 01:22:11;;;;;;;;;7.67;7.67;;;;;24.76;51.17;98854.81;4889912;28;102947;-80
2021/08/14 01:24:38;;;;;;;;;8.00;8.00;;;;;24.76;51.28;98848.47;4872220;28;102831;-80
2021/08/14 01:27:08;;;;;;;;;8.33;7.67;;;;;24.74;51.31;98851.50;4885629;28;102178;-80
2021/08/14 01:29:36;;;;;;;;;12.00;10.67;;;;;24.75;51.30;98847.63;4890455;28;103754;-80
2021/08/14 01:32:07;;;;;;;;;8.33;7.67;;;;;24.74;51.22;98854.28;4890145;28;103421;-80
2021/08/14 01:34:38;;;;;;;;;8.67;7.67;;;;;24.62;51.09;98831.69;4860240;28;102736;-80
2021/08/14 01:37:07;;;;;;;;;8.33;7.67;;;;;24.73;51.35;98852.63;4902846;28;102329;-80
2021/08/14 01:39:34;;;;;;;;;8.00;8.00;;;;;24.74;51.52;98847.91;4889387;28;105042;-80
2021/08/14 01:42:05;;;;;;;;;12.33;9.67;;;;;24.72;51.19;98848.19;4885964;28;102772;-80
2021/08/14 01:44:33;;;;;;;;;9.33;9.33;;;;;24.72;51.42;98847.38;4909887;28;102588;-80
2021/08/14 01:47:00;;;;;;;;;8.33;8.00;;;;;24.72;51.16;98853.72;4889513;28;102372;-80
2021/08/14 01:49:27;;;;;;;;;8.33;8.33;;;;;24.71;51.10;98863.16;4905535;28;104332;-80
2021/08/14 01:51:54;;;;;;;;;8.00;8.00;;;;;24.70;51.19;98853.19;4906071;28;102692;-80
2021/08/14 01:54:21;;;;;;;;;10.33;8.67;;;;;24.70;51.33;98855.97;4897965;28;104196;-80
2021/08/14 01:56:50;;;;;;;;;10.00;9.67;;;;;24.70;51.03;98852.38;4894721;28;102725;-80
2021/08/14 01:59:17;;;;;;;;;10.33;9.00;;;;;24.69;51.09;98854.31;4892201;28;103752;-80
2021/08/14 02:01:44;;;;;;;;;11.00;9.67;;;;;24.68;51.21;98866.47;4874165;28;104198;-80
2021/08/14 02:04:11;;;;;;;;;8.00;8.00;;;;;24.69;51.55;98865.38;4895639;28;102583;-80
2021/08/14 02:06:38;;;;;;;;;7.33;7.33;;;;;24.69;51.30;98868.13;4894694;28;102481;-80
2021/08/14 02:09:05;;;;;;;;;8.33;8.33;;;;;24.68;51.24;98860.09;4887213;28;104097;-80
2021/08/14 02:11:34;;;;;;;;;10.00;9.33;;;;;24.67;51.42;98856.53;4909829;28;102735;-80
2021/08/14 02:14:02;;;;;;;;;10.00;9.00;;;;;24.67;51.46;98850.19;4881496;28;103482;-80
2021/08/14 02:16:29;;;;;;;;;7.33;7.00;;;;;24.67;51.31;98850.19;4888426;28;102381;-80
2021/08/14 02:18:58;;;;;;;;;8.67;8.33;;;;;24.65;51.37;98853.22;4895973;28;104109;-80
2021/08/14 02:21:25;;;;;;;;;10.00;9.00;;;;;24.66;51.28;98851.28;4877314;28;102539;-80
2021/08/14 02:23:52;;;;;;;;;8.00;8.00;;;;;24.65;51.28;98842.16;4883186;28;102500;-80
2021/08/14 02:26:23;;;;;;;;;9.33;9.00;;;;;24.63;51.36;98838.84;4893752;28;103046;-80
2021/08/14 02:28:50;;;;;;;;;7.67;7.67;;;;;24.64;51.22;98853.50;4881746;28;104102;-80
2021/08/14 02:31:17;;;;;;;;;10.00;9.00;;;;;24.64;51.17;98840.50;4891714;28;102486;-80
2021/08/14 02:33:45;;;;;;;;;8.00;8.00;;;;;24.63;51.27;98830.56;4890073;28;102485;-80
2021/08/14 02:36:13;;;;;;;;;10.00;8.67;;;;;24.63;51.09;98822.25;4879261;28;102654;-80
2021/08/14 02:38:40;;;;;;;;;9.33;8.67;;;;;24.62;51.49;98820.63;4900456;28;109074;-80
2021/08/14 02:41:08;;;;;;;;;11.00;10.00;;;;;24.62;51.12;98826.16;4896584;28;103015;-80
2021/08/14 02:43:35;;;;;;;;;9.33;8.33;;;;;24.61;51.57;98818.97;4859313;28;102992;-80
2021/08/14 02:46:03;;;;;;;;;10.00;9.67;;;;;24.61;51.58;98823.66;4886849;28;102616;-80
2021/08/14 02:48:31;;;;;;;;;10.67;10.00;;;;;24.61;51.15;98830.03;4896160;28;104172;-80
2021/08/14 02:50:58;;;;;;;;;10.67;10.67;;;;;24.61;51.37;98831.97;4870552;28;102712;-80
2021/08/14 02:53:25;;;;;;;;;9.33;9.33;;;;;24.60;51.70;98820.06;4878264;28;102189;-80
2021/08/14 02:55:53;;;;;;;;;8.00;8.00;;;;;24.59;51.29;98820.34;4882351;28;102502;-80
2021/08/14 02:58:20;;;;;;;;;9.00;9.00;;;;;24.59;51.34;98821.19;4865762;28;112522;-80
2021/08/14 03:00:47;;;;;;;;;11.67;10.00;;;;;24.59;51.22;98814.81;4875991;28;102724;-80
2021/08/14 03:03:14;;;;;;;;;13.33;11.00;;;;;24.58;51.58;98816.78;4901831;28;102536;-80
2021/08/14 03:05:42;;;;;;;;;8.67;8.00;;;;;24.57;51.38;98820.66;4886337;28;103199;-80
2021/08/14 03:08:09;;;;;;;;;9.00;8.00;;;;;24.57;51.21;98812.38;4892495;28;103775;-80
2021/08/14 03:10:38;;;;;;;;;9.00;8.33;;;;;24.55;51.28;98806.28;4894336;28;102483;-80
2021/08/14 03:13:05;;;;;;;;;9.67;9.67;;;;;24.55;51.07;98809.03;4878676;28;102508;-80
2021/08/14 03:15:32;;;;;;;;;10.00;9.00;;;;;24.55;51.33;98814.56;4905142;28;103859;-80
2021/08/14 03:18:00;;;;;;;;;7.00;7.00;;;;;24.54;51.33;98815.69;4876822;28;104150;-80
2021/08/14 03:20:27;;;;;;;;;10.00;9.67;;;;;24.54;51.25;98823.19;4889302;28;102574;-80
2021/08/14 03:22:54;;;;;;;;;10.00;9.67;;;;;24.54;51.09;98825.94;4895797;28;102584;-80
2021/08/14 03:25:21;;;;;;;;;9.00;9.00;;;;;24.53;51.48;98825.09;4890693;28;102677;-80
2021/08/14 03:27:48;;;;;;;;;10.33;9.00;;;;;24.52;51.46;98828.97;4892977;28;104092;-80
2021/08/14 03:30:16;;;;;;;;;9.00;8.33;;;;;24.50;51.41;98822.91;4903467;28;102582;-81
2021/08/14 03:32:44;;;;;;;;;11.33;10.67;;;;;24.38;51.27;98803.06;4885296;28;102245;-82
2021/08/14 03:35:14;;;;;;;;;10.67;9.67;;;;;24.51;51.41;98823.72;4903924;28;102556;-82
2021/08/14 03:37:42;;;;;;;;;8.00;7.67;;;;;24.49;51.27;98826.81;4898466;28;110724;-82
2021/08/14 03:40:09;;;;;;;;;5.00;4.00;;;;;24.49;51.32;98825.97;4877055;28;102196;-82
2021/08/14 03:42:37;;;;;;;;;8.33;7.00;;;;;24.48;51.51;98825.13;4898080;28;102610;-81
2021/08/14 03:45:04;;;;;;;;;8.67;8.00;;;;;24.47;51.16;98828.19;4894176;28;102596;-82
2021/08/14 03:47:31;;;;;;;;;9.00;8.00;;;;;24.47;51.39;98823.47;4868083;28;104339;-81
2021/08/14 03:49:58;;;;;;;;;11.67;11.67;;;;;24.48;50.94;98824.31;4895420;28;102639;-82
2021/08/14 03:52:26;;;;;;;;;10.33;10.00;;;;;24.44;51.08;98826.81;4880696;28;102458;-82
2021/08/14 03:54:53;;;;;;;;;10.33;8.33;;;;;24.47;51.10;98823.47;4878127;28;102691;-81
2021/08/14 03:57:20;;;;;;;;;10.00;10.00;;;;;24.45;51.22;98826.53;4896807;28;104192;-82
2021/08/14 03:59:47;;;;;;;;;9.33;8.67;;;;;24.44;51.22;98824.88;4890766;28;102450;-81
2021/08/14 04:02:14;;;;;;;;;8.67;7.67;;;;;24.42;51.06;98821.56;4885317;28;102655;-81
2021/08/14 04:04:42;;;;;;;;;10.00;9.00;;;;;24.44;51.07;98824.06;4874549;28;102617;-82
2021/08/14 04:07:09;;;;;;;;;11.00;10.33;;;;;24.44;50.94;98829.59;4885525;28;104118;-82
2021/08/14 04:09:36;;;;;;;;;8.67;8.00;;;;;24.42;50.96;98821.56;4885520;28;102489;-81
2021/08/14 04:12:03;;;;;;;;;7.67;7.00;;;;;24.42;51.04;98826.28;4893198;28;102773;-81
2021/08/14 04:14:31;;;;;;;;;8.00;7.33;;;;;24.43;51.16;98833.47;4876911;28;102801;-82
2021/08/14 04:16:58;;;;;;;;;11.00;9.00;;;;;24.42;50.82;98827.09;4890923;28;104718;-81
2021/08/14 04:19:25;;;;;;;;;8.33;8.33;;;;;24.41;51.08;98830.13;4912991;28;102260;-82
2021/08/14 04:21:52;;;;;;;;;10.33;9.33;;;;;24.43;50.92;98826.00;4912078;28;104186;-81
2021/08/14 04:24:20;;;;;;;;;9.00;9.00;;;;;24.42;50.82;98831.81;4911780;28;102432;-81
2021/08/14 04:26:47;;;;;;;;;8.00;7.33;;;;;24.42;50.79;98831.81;4909132;28;104634;-81
2021/08/14 04:29:14;;;;;;;;;10.67;10.67;;;;;24.41;50.64;98825.44;4901565;28;102568;-82
2021/08/14 04:31:41;;;;;;;;;8.00;8.00;;;;;24.41;50.66;98836.50;4910002;28;102726;-82
2021/08/14 04:34:08;;;;;;;;;9.33;8.67;;;;;24.39;50.90;98833.22;4913006;28;102679;-81
2021/08/14 04:36:35;;;;;;;;;10.00;9.67;;;;;24.40;50.81;98843.16;4910794;28;104330;-81
2021/08/14 04:39:02;;;;;;;;;10.33;10.00;;;;;24.40;50.79;98840.41;4916235;28;103668;-82
2021/08/14 04:41:29;;;;;;;;;10.00;9.67;;;;;24.40;50.86;98842.34;4915671;28;102807;-81
2021/08/14 04:43:56;;;;;;;;;9.33;8.33;;;;;24.40;51.17;98845.94;4916245;28;102294;-81
2021/08/14 04:46:23;;;;;;;;;9.00;9.00;;;;;24.40;50.77;98847.84;4928537;28;104041;-82
2021/08/14 04:48:51;;;;;;;;;9.33;9.33;;;;;24.39;51.09;98844.25;4892717;28;102677;-81
2021/08/14 04:51:18;;;;;;;;;10.00;10.00;;;;;24.39;50.73;98860.03;4919774;28;102409;-81
2021/08/14 04:53:45;;;;;;;;;11.00;11.00;;;;;24.37;50.70;98852.00;4909790;28;102530;-81
2021/08/14 04:56:12;;;;;;;;;7.67;7.67;;;;;24.38;50.69;98861.97;4907574;28;104464;-81
2021/08/14 04:58:39;;;;;;;;;9.33;9.00;;;;;24.37;50.56;98865.00;4923817;28;104898;-81
2021/08/14 05:01:06;;;;;;;;;7.00;7.00;;;;;24.36;50.66;98861.41;4922174;28;102527;-81
2021/08/14 05:03:33;;;;;;;;;7.67;7.67;;;;;24.37;50.50;98873.28;4906210;28;102419;-81
2021/08/14 05:06:01;;;;;;;;;8.00;7.33;;;;;24.37;50.46;98862.22;4903268;28;104258;-81
2021/08/14 05:08:28;;;;;;;;;8.67;8.33;;;;;24.37;50.46;98863.06;4909010;28;102388;-81
2021/08/14 05:10:55;;;;;;;;;8.00;8.00;;;;;24.38;50.20;98869.41;4920180;28;102714;-81
2021/08/14 05:13:22;;;;;;;;;8.67;8.67;;;;;24.37;50.17;98867.75;4908735;28;104154;-81
2021/08/14 05:15:49;;;;;;;;;8.67;7.67;;;;;24.36;50.14;98861.41;4926532;28;104083;-81
2021/08/14 05:18:16;;;;;;;;;6.67;6.67;;;;;24.36;50.25;98872.47;4912765;28;102402;-82
2021/08/14 05:20:43;;;;;;;;;9.00;9.00;;;;;24.36;50.18;98872.47;4912143;28;102451;-81
2021/08/14 05:23:12;;;;;;;;;10.67;9.00;;;;;24.37;50.17;98879.66;4897646;28;102721;-81
2021/08/14 05:25:39;;;;;;;;;10.33;9.33;;;;;24.38;50.09;98872.19;4911027;28;104040;-81
2021/08/14 05:28:07;;;;;;;;;11.00;9.00;;;;;24.38;50.33;98886.00;4921930;28;102452;-81
2021/08/14 05:30:34;;;;;;;;;8.00;8.00;;;;;24.37;50.49;98874.13;4913473;28;102149;-81
2021/08/14 05:33:01;;;;;;;;;9.33;9.33;;;;;24.36;50.22;98879.94;4890068;28;105283;-81
2021/08/14 05:35:28;;;;;;;;;8.00;8.00;;;;;24.37;50.15;98870.53;4901814;28;104104;-81
2021/08/14 05:37:55;;;;;;;;;8.00;8.00;;;;;24.37;50.48;98867.75;4899305;28;102603;-81
2021/08/14 05:40:23;;;;;;;;;9.00;8.00;;;;;24.38;50.32;98863.88;4898800;28;102391;-81
2021/08/14 05:42:50;;;;;;;;;10.33;9.67;;;;;24.39;50.29;98871.06;4913865;28;103270;-82
2021/08/14 05:45:17;;;;;;;;;8.33;8.00;;;;;24.38;50.17;98863.88;4884450;28;109039;-82
2021/08/14 05:47:44;;;;;;;;;10.00;9.00;;;;;24.38;50.25;98863.88;4905071;28;102602;-81
2021/08/14 05:50:11;;;;;;;;;9.00;9.00;;;;;24.39;50.38;98862.78;4895826;28;104296;-81
2021/08/14 05:52:38;;;;;;;;;7.67;7.67;;;;;24.39;50.21;98868.31;4891887;28;102642;-81
2021/08/14 05:55:06;;;;;;;;;10.00;10.00;;;;;24.39;50.38;98865.56;4920498;28;104080;-81
2021/08/14 05:57:33;;;;;;;;;12.00;11.00;;;;;24.39;50.62;98863.63;4910613;28;102533;-82
2021/08/14 06:00:00;;;;;;;;;16.00;13.67;;;;;24.39;50.49;98860.84;4893374;28;102441;-81
2021/08/14 06:02:27;;;;;;;;;11.67;11.67;;;;;24.39;50.41;98865.56;4910268;28;102467;-81
2021/08/14 06:04:55;;;;;;;;;16.33;13.67;;;;;24.38;50.50;98873.00;4893161;28;104223;-81
2021/08/14 06:07:22;;;;;;;;;15.00;13.67;;;;;24.38;50.41;98866.66;4914744;28;102512;-81
2021/08/14 06:09:49;;;;;;;;;13.67;13.67;;;;;24.39;50.33;98865.56;4912129;28;102638;-82
2021/08/14 06:12:16;;;;;;;;;13.33;12.33;;;;;24.39;50.38;98869.16;4911643;28;102712;-81
2021/08/14 06:14:43;;;;;;;;;17.33;14.33;;;;;24.39;50.43;98877.44;4907533;28;104160;-81
2021/08/14 06:17:10;;;;;;;;;16.33;15.33;;;;;24.40;50.35;98869.97;4919395;28;102434;-81
2021/08/14 06:19:37;;;;;;;;;13.67;13.67;;;;;24.40;50.41;98881.03;4905426;28;102745;-81
2021/08/14 06:22:06;;;;;;;;;12.67;12.00;;;;;24.40;50.55;98872.75;4912863;28;102607;-83
2021/08/14 06:24:33;;;;;;;;;15.67;12.67;;;;;24.40;50.37;98881.03;4902068;28;104324;-81
2021/08/14 06:27:00;;;;;;;;;16.33;14.33;;;;;24.40;50.41;98881.03;4914131;28;102712;-81
2021/08/14 06:29:28;;;;;;;;;13.00;12.33;;;;;24.40;50.67;98887.38;4914977;28;102903;-81
2021/08/14 06:31:55;;;;;;;;;12.67;12.33;;;;;24.42;50.44;98882.38;4905229;28;102652;-81
2021/08/14 06:34:22;;;;;;;;;14.00;13.00;;;;;24.41;50.23;98879.91;4911439;28;104070;-80
2021/08/14 06:37:39;;;;;;;;;13.00;11.00;;;;;24.40;53.46;98884.63;4919356;28;102530;-81
2021/08/14 06:40:07;;;;;;;;;12.00;11.67;;;;;24.36;54.91;98882.72;4841361;28;102235;-82
2021/08/14 06:42:34;;;;;;;;;8.00;7.33;;;;;24.33;55.19;98891.56;4914101;28;102670;-81
2021/08/14 06:45:02;;;;;;;;;9.00;9.00;;;;;24.32;55.40;98889.88;4916847;28;104230;-83
2021/08/14 06:47:29;;;;;;;;;10.33;10.33;;;;;24.32;55.18;98887.13;4923907;28;102133;-83
2021/08/14 06:49:56;;;;;;;;;10.00;10.00;;;;;24.31;55.50;98886.31;4904745;28;103856;-82
2021/08/14 06:52:23;;;;;;;;;10.00;8.00;;;;;24.34;55.54;98894.03;4918955;28;103393;-81
2021/08/14 06:54:51;;;;;;;;;11.67;11.33;;;;;24.35;56.37;98895.69;4913392;28;104080;-81
2021/08/14 06:57:18;;;;;;;;;9.33;9.33;;;;;24.34;57.21;98898.75;4912960;28;102480;-81
2021/08/14 06:59:45;;;;;;;;;13.00;13.00;;;;;24.34;57.04;98890.44;4914180;28;102507;-81
2021/08/14 07:02:14;;;;;;;;;10.00;8.00;;;;;24.36;56.74;98888.25;4910470;28;104709;-83
2021/08/14 07:04:42;;;;;;;;;10.00;10.00;;;;;24.39;57.18;98894.03;4905571;28;104245;-81
2021/08/14 07:07:09;;;;;;;;;8.67;8.00;;;;;24.40;56.20;98897.63;4920334;28;102314;-81
2021/08/14 07:09:37;;;;;;;;;10.67;9.67;;;;;24.41;56.95;98880.72;4894496;28;102709;-81
2021/08/14 07:12:05;;;;;;;;;9.33;9.33;;;;;24.41;57.83;98890.94;4911460;28;102811;-81
2021/08/14 07:14:32;;;;;;;;;10.00;9.33;;;;;24.39;57.39;98884.91;4905997;28;104020;-82
2021/08/14 07:16:59;;;;;;;;;9.33;9.00;;;;;24.42;56.65;98889.84;4889068;28;102404;-81
2021/08/14 07:19:27;;;;;;;;;8.67;8.67;;;;;24.45;56.38;98875.47;4902359;28;103012;-81
2021/08/14 07:21:54;;;;;;;;;10.67;10.00;;;;;24.48;56.19;98888.72;4907494;28;102735;-81
2021/08/14 07:24:22;;;;;;;;;9.67;9.67;;;;;24.49;56.68;98879.31;4896055;28;104071;-81
2021/08/14 07:26:49;;;;;;;;;10.00;8.67;;;;;24.50;56.63;98872.66;4899897;28;102115;-81
2021/08/14 07:29:16;;;;;;;;;11.33;11.00;;;;;24.51;56.02;98885.38;4898559;28;102324;-81
2021/08/14 07:31:43;;;;;;;;;12.00;11.00;;;;;24.52;57.58;98872.38;4900116;28;102577;-81
2021/08/14 07:34:10;;;;;;;;;10.33;10.00;;;;;24.53;55.93;98877.63;4896344;28;104826;-81
2021/08/14 07:36:37;;;;;;;;;12.67;12.00;;;;;24.55;56.26;98878.16;4898865;28;103336;-81
2021/08/14 07:39:06;;;;;;;;;11.67;10.33;;;;;24.55;56.92;98880.94;4894819;28;102292;-81
2021/08/14 07:41:41;;;;;;;;;13.33;12.00;;;;;24.56;56.48;98870.69;4903246;28;102444;-81
2021/08/14 07:44:08;;;;;;;;;14.67;12.00;;;;;24.55;56.66;98875.41;4898423;28;105164;-81
2021/08/14 07:46:47;;;;;;;;;12.00;11.33;;;;;24.59;56.17;98886.72;4890733;28;102574;-83
2021/08/14 07:49:14;;;;;;;;;11.33;11.00;;;;;24.58;56.20;98877.63;4898332;28;102435;-82
2021/08/14 07:51:41;;;;;;;;;12.00;10.33;;;;;24.60;56.45;98883.66;4899500;28;102593;-83
2021/08/14 07:54:09;;;;;;;;;11.00;9.67;;;;;24.62;56.10;98877.88;4897654;28;104105;-84
2021/08/14 07:56:36;;;;;;;;;12.00;11.67;;;;;24.62;56.90;98881.47;4900240;28;102771;-83
2021/08/14 07:59:03;;;;;;;;;11.67;11.00;;;;;24.62;56.14;98884.22;4896614;28;103173;-82
2021/08/14 08:01:30;;;;;;;;;12.00;12.00;;;;;24.65;56.08;98883.66;4901939;28;102232;-83
2021/08/14 08:03:57;;;;;;;;;13.00;12.00;;;;;24.67;56.54;98872.31;4905428;28;111267;-83
2021/08/14 08:06:24;;;;;;;;;12.00;12.00;;;;;24.67;56.44;98878.66;4895670;28;102603;-82
2021/08/14 08:08:51;;;;;;;;;14.00;12.67;;;;;24.70;56.65;98883.63;4900155;28;102935;-82
2021/08/14 08:11:19;;;;;;;;;13.67;12.67;;;;;24.71;56.68;98878.91;4903974;28;102420;-83
2021/08/14 08:13:46;;;;;;;;;12.00;10.00;;;;;24.70;56.51;98866.19;4895972;28;104364;-83
2021/08/14 08:16:13;;;;;;;;;15.00;12.67;;;;;24.73;56.80;98876.69;4915196;28;102230;-83
2021/08/14 08:18:40;;;;;;;;;13.67;13.33;;;;;24.74;56.87;98876.41;4908528;28;102629;-83
2021/08/14 08:21:07;;;;;;;;;13.33;10.00;;;;;24.76;56.88;98881.66;4912113;28;102713;-83
2021/08/14 08:23:34;;;;;;;;;10.00;10.00;;;;;24.77;57.38;98873.06;4919144;28;104107;-82
2021/08/14 08:26:02;;;;;;;;;13.00;12.00;;;;;24.78;56.70;98874.72;4920437;28;102534;-83
2021/08/14 08:28:29;;;;;;;;;12.67;12.67;;;;;24.72;56.62;98864.78;4909098;28;102577;-83
2021/08/14 08:30:56;;;;;;;;;12.00;11.00;;;;;24.83;56.73;98877.44;4927186;28;102746;-83
2021/08/14 08:33:23;;;;;;;;;12.00;11.00;;;;;24.84;57.04;98879.09;4932933;28;103360;-83
2021/08/14 08:35:50;;;;;;;;;10.67;9.33;;;;;24.87;57.11;98877.72;4916162;28;102199;-83
2021/08/14 08:38:20;;;;;;;;;10.67;10.00;;;;;24.88;57.40;98877.44;4927356;28;101845;-83
2021/08/14 08:40:47;;;;;;;;;11.00;11.00;;;;;24.90;57.22;98877.16;4926300;28;102320;-83
2021/08/14 08:43:14;;;;;;;;;8.33;8.00;;;;;24.93;57.38;98881.28;4923359;28;103198;-83
2021/08/14 08:45:41;;;;;;;;;10.33;9.00;;;;;24.95;57.42;98879.06;4924414;28;102128;-83
2021/08/14 08:48:09;;;;;;;;;9.00;7.67;;;;;24.97;57.73;98879.59;4912978;28;101832;-83
2021/08/14 08:50:36;;;;;;;;;11.67;10.00;;;;;24.97;57.68;98882.38;4915244;28;103563;-83
2021/08/14 08:53:04;;;;;;;;;11.33;11.00;;;;;25.00;57.44;98876.25;4903103;28;103355;-83
2021/08/14 08:55:31;;;;;;;;;12.33;12.00;;;;;25.01;57.30;98877.91;4924851;28;102260;-83
2021/08/14 08:57:59;;;;;;;;;11.00;10.33;;;;;25.03;57.68;98870.16;4924419;28;110218;-83
2021/08/14 09:00:26;;;;;;;;;11.33;10.00;;;;;25.04;58.18;98872.63;4918795;28;102220;-83
2021/08/14 09:03:07;;;;;;;;;8.00;7.67;;;;;25.07;58.27;98866.53;4793389;28;103548;-83
2021/08/14 09:05:56;;;;;;;;;10.00;10.00;;;;;25.09;57.89;98864.28;4857682;28;102298;-83
2021/08/14 09:08:24;;;;;;;;;13.00;12.00;;;;;25.12;58.16;98858.19;4928614;28;101913;-83
2021/08/14 09:11:09;;;;;;;;;9.00;9.00;;;;;25.14;58.83;98861.47;4931050;28;102808;-83
2021/08/14 09:13:36;;;;;;;;;10.33;10.00;;;;;25.15;58.63;98859.53;4846127;28;107994;-83
2021/08/14 09:16:22;;;;;;;;;11.67;11.00;;;;;25.19;58.16;98858.66;4930131;28;101741;-83
2021/08/14 09:18:57;;;;;;;;;10.00;9.33;;;;;25.22;58.42;98851.72;4931757;28;109325;-83
2021/08/14 09:21:33;;;;;;;;;10.00;9.33;;;;;25.24;57.97;98855.03;4928484;28;102215;-82
2021/08/14 09:24:06;;;;;;;;;11.33;11.00;;;;;25.26;57.99;98848.06;4866905;28;108728;-83
2021/08/14 09:26:46;;;;;;;;;12.33;11.33;;;;;25.29;58.20;98846.69;4926699;28;102179;-83
2021/08/14 09:29:13;;;;;;;;;9.00;9.00;;;;;25.31;57.91;98845.25;4927549;28;102048;-83
2021/08/14 09:31:54;;;;;;;;;10.00;9.00;;;;;25.33;58.13;98847.75;4933370;28;102896;-83
2021/08/14 09:34:23;;;;;;;;;9.00;9.00;;;;;25.36;57.79;98838.84;4935816;28;107859;-83
2021/08/14 09:37:00;;;;;;;;;12.00;11.00;;;;;25.39;58.08;98843.81;4931845;28;103285;-83
2021/08/14 09:40:09;;;;;;;;;10.33;9.33;;;;;25.42;58.24;98834.94;4917149;28;102684;-83
2021/08/14 09:42:52;;;;;;;;;11.67;9.67;;;;;25.46;58.36;98835.16;4883299;28;102335;-82
2021/08/14 09:45:21;;;;;;;;;12.33;9.67;;;;;25.48;58.56;98832.94;4919876;28;108075;-83
2021/08/14 09:47:51;;;;;;;;;10.67;10.33;;;;;25.38;58.77;98814.47;4904673;28;102637;-84
2021/08/14 09:50:18;;;;;;;;;11.00;10.33;;;;;25.53;59.20;98830.13;4901998;28;102293;-83
2021/08/14 09:52:51;;;;;;;;;12.67;9.67;;;;;25.54;59.27;98832.59;4911273;28;102490;-84
2021/08/14 09:55:23;;;;;;;;;10.67;9.67;;;;;25.58;57.75;98833.66;4913882;28;109129;-84
2021/08/14 09:57:59;;;;;;;;;10.67;10.67;;;;;25.61;57.53;98827.56;4926418;28;102369;-84
2021/08/14 10:00:30;;;;;;;;;8.33;8.33;;;;;25.64;57.15;98840.00;4889945;28;102213;-83
2021/08/14 10:03:00;;;;;;;;;9.33;8.00;;;;;25.65;56.94;98841.66;4910798;28;102220;-83
2021/08/14 10:05:31;;;;;;;;;10.33;9.67;;;;;25.68;56.33;98839.09;4910458;28;104261;-83
2021/08/14 10:08:02;;;;;;;;;10.00;10.00;;;;;25.70;56.26;98828.56;4930882;28;102120;-83
2021/08/14 10:10:32;;;;;;;;;10.00;9.00;;;;;25.73;56.16;98832.69;4923540;28;102302;-83
2021/08/14 10:12:59;;;;;;;;;8.67;8.33;;;;;25.78;56.27;98843.72;4927246;28;102975;-84
2021/08/14 10:15:27;;;;;;;;;8.00;7.00;;;;;25.80;56.57;98837.91;4934927;28;103403;-83
2021/08/14 10:17:55;;;;;;;;;9.33;8.33;;;;;25.81;56.25;98836.75;4923758;28;106561;-83
2021/08/14 10:20:23;;;;;;;;;8.00;8.00;;;;;25.82;56.09;98828.16;4933934;28;101692;-84
2021/08/14 10:23:06;;;;;;;;;10.00;9.00;;;;;25.83;55.97;98834.53;4913285;28;102279;-84
2021/08/14 10:25:35;;;;;;;;;8.00;8.00;;;;;25.85;55.16;98827.56;4860578;28;108054;-84
2021/08/14 10:28:04;;;;;;;;;7.00;7.00;;;;;25.88;55.39;98828.94;4913997;28;102119;-84
2021/08/14 10:30:41;;;;;;;;;8.33;7.33;;;;;25.89;55.03;98828.63;4926894;28;102141;-83
2021/08/14 10:33:28;;;;;;;;;7.00;7.00;;;;;25.91;55.43;98820.84;4913348;28;102783;-83
2021/08/14 10:35:55;;;;;;;;;6.00;6.00;;;;;25.93;55.09;98817.78;4931711;28;107957;-83
2021/08/14 10:38:49;;;;;;;;;7.67;7.67;;;;;25.85;55.12;98796.28;4933210;28;102969;-83
2021/08/14 10:41:17;;;;;;;;;10.00;8.00;;;;;25.96;55.17;98811.63;4853073;28;101760;-83
2021/08/14 10:43:53;;;;;;;;;8.00;8.00;;;;;25.99;55.56;98808.28;4921236;28;102145;-83
2021/08/14 10:46:47;;;;;;;;;9.00;9.00;;;;;26.00;55.38;98812.69;4903019;28;108794;-83
2021/08/14 10:49:19;;;;;;;;;8.00;7.67;;;;;26.01;54.79;98806.03;4842208;28;102196;-83
2021/08/14 10:51:52;;;;;;;;;9.33;8.33;;;;;26.04;54.76;98808.22;4925656;28;102135;-83
2021/08/14 10:54:27;;;;;;;;;7.67;7.67;;;;;26.07;54.91;98813.19;4915231;28;102160;-84
2021/08/14 10:57:09;;;;;;;;;9.00;9.00;;;;;26.10;54.92;98799.53;4908455;28;107647;-83
2021/08/14 10:59:38;;;;;;;;;9.33;7.00;;;;;26.13;54.66;98790.63;4906716;28;102984;-83
2021/08/14 11:02:09;;;;;;;;;8.00;7.00;;;;;26.16;54.63;98794.75;4929415;28;102059;-84
2021/08/14 11:04:39;;;;;;;;;8.67;8.67;;;;;26.18;54.95;98801.66;4925281;28;101955;-83
2021/08/14 11:07:19;;;;;;;;;9.33;9.00;;;;;26.23;54.79;98789.69;4913974;28;102923;-83
2021/08/14 11:09:50;;;;;;;;;9.00;8.67;;;;;26.24;54.91;98782.22;4935178;28;102235;-84
2021/08/14 11:12:41;;;;;;;;;9.00;8.33;;;;;26.27;55.18;98782.44;4937179;28;102352;-83
2021/08/14 11:15:38;;;;;;;;;10.00;9.67;;;;;26.29;55.16;98782.97;4854413;28;102676;-84
2021/08/14 11:18:07;;;;;;;;;9.00;8.33;;;;;26.34;54.89;98779.31;4859426;28;106916;-83
2021/08/14 11:20:39;;;;;;;;;8.00;8.00;;;;;26.35;54.98;98776.22;4914547;28;102092;-83
2021/08/14 11:23:23;;;;;;;;;9.33;8.33;;;;;26.40;55.17;98775.31;4898942;28;102750;-83
2021/08/14 11:25:54;;;;;;;;;8.67;8.00;;;;;26.42;55.10;98773.91;4903321;28;101973;-83
2021/08/14 11:28:28;;;;;;;;;9.67;9.67;;;;;26.45;54.83;98764.97;4895387;28;108722;-83